Time;durP1;ratioP1;P1;durP2;ratioP2;P2;SDS_P1;SDS_P2;PMS_P1;PMS_P2;Temp;Humidity;BMP_temperature;BMP_pressure;BME280_temperature;BME280_humidity;BME280_pressure;Samples;Min_cycle;Max_cycle;Signal;HPM_P1;HPM_P2
2022/01/23 00:00:02;;;;;;;2.40;1.90;;;6.00;99.90;;;;;;5084802;28;20204;-55
2022/01/23 00:02:33;;;;;;;2.90;2.20;;;6.10;99.90;;;;;;5114958;28;20194;-56
2022/01/23 00:05:06;;;;;;;1.60;1.50;;;6.10;99.90;;;;;;5114224;28;20206;-56
2022/01/23 00:07:37;;;;;;;1.83;1.50;;;6.10;99.90;;;;;;5114534;28;20196;-56
2022/01/23 00:10:09;;;;;;;5.40;4.90;;;6.10;99.90;;;;;;5121277;27;20229;-57
2022/01/23 00:12:44;;;;;;;4.30;3.00;;;6.10;99.90;;;;;;5135128;27;20208;-55
2022/01/23 00:17:57;;;;;;;2.33;2.13;;;6.00;99.90;;;;;;5134496;27;20307;-55
2022/01/23 00:20:25;;;;;;;2.97;2.40;;;6.00;99.90;;;;;;5134470;27;20636;-55
2022/01/23 00:22:58;;;;;;;3.50;2.43;;;6.00;99.90;;;;;;5134417;27;20232;-55
2022/01/23 00:30:59;;;;;;;5.13;4.00;;;6.10;99.90;;;;;;5113830;28;20233;-56
2022/01/23 00:33:28;;;;;;;6.30;4.90;;;6.10;99.90;;;;;;5113776;28;20220;-56
2022/01/23 00:35:56;;;;;;;3.30;2.80;;;6.10;99.90;;;;;;5113666;28;20253;-56
2022/01/23 00:38:25;;;;;;;2.93;2.63;;;6.10;99.90;;;;;;5113655;28;20253;-55
2022/01/23 00:40:53;;;;;;;3.70;2.00;;;6.10;99.90;;;;;;5108713;28;20230;-55
2022/01/23 00:43:28;;;;;;;3.77;2.30;;;6.10;99.90;;;;;;5093479;28;20285;-56
2022/01/23 00:46:09;;;;;;;2.07;1.87;;;6.10;99.90;;;;;;5101846;28;20257;-56
2022/01/23 00:48:49;;;;;;;4.37;2.60;;;6.10;99.90;;;;;;5113753;28;20209;-56
2022/01/23 00:51:18;;;;;;;1.67;1.50;;;6.10;99.90;;;;;;5113038;28;20310;-55
2022/01/23 00:53:47;;;;;;;1.60;1.40;;;6.10;99.90;;;;;;5125638;27;20236;-55
2022/01/23 00:56:15;;;;;;;1.37;1.20;;;6.00;99.90;;;;;;5113311;28;20662;-56
2022/01/23 00:58:44;;;;;;;1.60;1.50;;;6.00;99.90;;;;;;5112101;28;20230;-55
2022/01/23 01:01:13;;;;;;;3.97;1.77;;;6.10;99.90;;;;;;5112513;28;20683;-56
2022/01/23 01:03:42;;;;;;;1.30;1.20;;;6.10;99.90;;;;;;5112636;28;20202;-56
2022/01/23 01:06:10;;;;;;;1.57;1.10;;;6.00;99.90;;;;;;5095844;28;20201;-55
2022/01/23 01:08:39;;;;;;;1.90;1.30;;;6.00;99.90;;;;;;5112256;28;20201;-56
2022/01/23 01:11:27;;;;;;;3.73;1.40;;;6.00;99.90;;;;;;5110571;28;20221;-56
2022/01/23 01:14:18;;;;;;;2.60;1.40;;;6.00;99.90;;;;;;5112771;28;20213;-56
2022/01/23 01:16:57;;;;;;;2.53;1.90;;;5.90;99.90;;;;;;5112956;28;20204;-55
2022/01/23 01:30:58;;;;;;;1.87;1.67;;;5.80;99.90;;;;;;5113098;28;20372;-56
2022/01/23 01:33:37;;;;;;;1.93;1.63;;;5.90;99.90;;;;;;5112419;28;20207;-56
2022/01/23 01:36:18;;;;;;;2.27;1.30;;;5.90;99.90;;;;;;5106106;28;20611;-56
2022/01/23 01:38:47;;;;;;;2.20;1.47;;;6.00;99.90;;;;;;5111988;28;20273;-56
2022/01/23 01:41:18;;;;;;;2.20;1.47;;;6.00;99.90;;;;;;5112398;28;20234;-56
2022/01/23 01:43:47;;;;;;;1.77;1.67;;;5.90;99.90;;;;;;5112727;28;20191;-56
2022/01/23 01:46:16;;;;;;;2.13;1.70;;;6.00;99.90;;;;;;5112374;28;20635;-55
2022/01/23 01:48:44;;;;;;;1.90;1.80;;;5.90;99.90;;;;;;5112094;28;20207;-56
2022/01/23 01:51:15;;;;;;;2.77;1.67;;;6.00;99.90;;;;;;5111860;28;20228;-55
2022/01/23 01:53:50;;;;;;;2.07;1.40;;;5.90;99.90;;;;;;5125942;27;20195;-56
2022/01/23 01:56:18;;;;;;;1.50;1.40;;;5.90;99.90;;;;;;5119624;27;20195;-54
2022/01/23 02:09:50;;;;;;;1.87;1.40;;;6.00;99.90;;;;;;5102413;27;20621;-56
2022/01/23 02:12:56;;;;;;;2.43;1.63;;;6.00;99.90;;;;;;5132557;27;20295;-56
2022/01/23 02:18:30;;;;;;;2.13;1.77;;;6.00;99.90;;;;;;5074739;28;20208;-56
2022/01/23 02:24:08;;;;;;;1.80;1.30;;;6.00;99.90;;;;;;5114482;27;20252;-56
2022/01/23 02:51:46;;;;;;;2.90;2.70;;;5.80;99.90;;;;;;5124339;27;20770;-55
2022/01/23 02:54:39;;;;;;;4.63;2.77;;;5.80;99.90;;;;;;5131415;27;20191;-56
2022/01/23 02:57:08;;;;;;;4.23;3.20;;;5.80;99.90;;;;;;5116492;27;20731;-55
2022/01/23 02:59:38;;;;;;;3.73;2.77;;;5.80;99.90;;;;;;5098259;28;20204;-55
2022/01/23 03:02:23;;;;;;;3.27;2.60;;;5.80;99.90;;;;;;5111470;28;20261;-56
2022/01/23 03:04:53;;;;;;;4.30;2.90;;;5.90;99.90;;;;;;5117669;28;20636;-56
2022/01/23 03:07:47;;;;;;;3.33;2.60;;;5.80;99.90;;;;;;5117593;28;20200;-56
2022/01/23 03:10:21;;;;;;;3.27;2.63;;;5.70;99.90;;;;;;5119824;28;20231;-56
2022/01/23 03:16:01;;;;;;;3.73;2.90;;;5.70;99.90;;;;;;5131592;28;20253;-55
2022/01/23 03:24:20;;;;;;;4.47;3.00;;;5.80;99.90;;;;;;5131371;28;20203;-55
2022/01/23 03:27:03;;;;;;;5.97;2.80;;;5.80;99.90;;;;;;5131338;28;20195;-56
2022/01/23 03:29:51;;;;;;;3.77;3.07;;;5.80;99.90;;;;;;5123176;28;20212;-55
2022/01/23 03:32:25;;;;;;;4.33;2.97;;;5.80;99.90;;;;;;5114711;28;20225;-55
2022/01/23 03:34:53;;;;;;;5.57;3.30;;;5.80;99.90;;;;;;5114581;28;20252;-55
2022/01/23 03:37:22;;;;;;;3.20;2.90;;;5.80;99.90;;;;;;5113976;28;20243;-56
2022/01/23 03:39:50;;;;;;;3.20;2.90;;;5.80;99.90;;;;;;5114784;28;20233;-57
2022/01/23 03:42:19;;;;;;;4.90;2.90;;;5.80;99.90;;;;;;5114402;28;20769;-55
2022/01/23 03:45:04;;;;;;;3.30;2.97;;;5.80;99.90;;;;;;5094258;28;20196;-56
2022/01/23 03:47:37;;;;;;;3.77;3.17;;;5.80;99.90;;;;;;5116224;27;20260;-56
2022/01/23 03:50:06;;;;;;;3.00;2.70;;;5.70;99.90;;;;;;5135273;27;20262;-56
2022/01/23 03:52:34;;;;;;;4.27;2.87;;;5.70;99.90;;;;;;5133056;27;20540;-56
2022/01/23 03:55:04;;;;;;;3.97;3.23;;;5.60;99.90;;;;;;5094215;28;20228;-55
2022/01/23 03:57:34;;;;;;;3.60;3.17;;;5.60;99.90;;;;;;5094017;28;20232;-55
2022/01/23 04:00:02;;;;;;;4.73;3.20;;;5.60;99.90;;;;;;5106646;28;20249;-55
2022/01/23 04:02:30;;;;;;;3.80;3.13;;;5.60;99.90;;;;;;5133280;27;20253;-55
2022/01/23 04:04:59;;;;;;;4.37;3.20;;;5.70;99.90;;;;;;5135204;27;20253;-55
2022/01/23 04:07:28;;;;;;;3.77;3.40;;;5.70;99.90;;;;;;5120466;27;20209;-55
2022/01/23 04:09:56;;;;;;;4.33;3.40;;;5.70;99.90;;;;;;5120358;27;20237;-56
2022/01/23 04:12:37;;;;;;;4.43;3.37;;;5.70;99.90;;;;;;5135032;27;20260;-56
2022/01/23 04:15:15;;;;;;;7.20;4.10;;;5.70;99.90;;;;;;5134755;27;20270;-56
2022/01/23 04:20:49;;;;;;;6.50;3.80;;;5.70;99.90;;;;;;5134516;27;20354;-54
2022/01/23 04:32:05;;;;;;;5.03;3.80;;;5.70;99.90;;;;;;5113633;28;20282;-56
2022/01/23 04:34:39;;;;;;;4.13;3.70;;;5.70;99.90;;;;;;5113818;28;20204;-57
2022/01/23 04:45:41;;;;;;;3.40;3.10;;;5.60;99.90;;;;;;5052848;28;20259;-54
2022/01/23 04:48:55;;;;;;;3.87;3.20;;;5.60;99.90;;;;;;5050809;28;20191;-52
2022/01/23 04:59:46;;;;;;;4.23;3.30;;;5.60;99.90;;;;;;5130932;27;20732;-53
2022/01/23 05:02:36;;;;;;;4.00;3.00;;;5.60;99.90;;;;;;5133876;27;20222;-54
2022/01/23 05:05:07;;;;;;;4.20;3.33;;;5.60;99.90;;;;;;5133924;27;20203;-55
2022/01/23 05:07:35;;;;;;;4.40;3.30;;;5.50;99.90;;;;;;5118229;27;20323;-55
2022/01/23 05:10:04;;;;;;;4.43;3.50;;;5.60;99.90;;;;;;5113106;28;20671;-56
2022/01/23 05:12:33;;;;;;;4.03;3.27;;;5.60;99.90;;;;;;5119861;27;20211;-54
2022/01/23 05:15:01;;;;;;;3.83;3.03;;;5.60;99.90;;;;;;5113290;28;20706;-56
2022/01/23 05:17:30;;;;;;;6.13;3.47;;;5.60;99.90;;;;;;5113191;28;20276;-56
2022/01/23 05:19:58;;;;;;;4.63;3.27;;;5.50;99.90;;;;;;5113110;28;20257;-55
2022/01/23 05:22:37;;;;;;;4.80;2.90;;;5.50;99.90;;;;;;5112487;28;20207;-54
2022/01/23 05:25:14;;;;;;;3.50;3.20;;;5.50;99.90;;;;;;5115983;27;20205;-55
2022/01/23 05:27:42;;;;;;;4.10;3.30;;;5.50;99.90;;;;;;5120787;27;20280;-55
2022/01/23 05:30:11;;;;;;;4.43;3.50;;;5.50;99.90;;;;;;5112322;28;20203;-53
2022/01/23 05:32:41;;;;;;;3.70;3.23;;;5.40;99.90;;;;;;5112803;28;20207;-54
2022/01/23 05:35:10;;;;;;;4.37;3.50;;;5.40;99.90;;;;;;5112897;28;20207;-55
2022/01/23 05:37:41;;;;;;;4.93;3.27;;;5.40;99.90;;;;;;5112043;28;20220;-54
2022/01/23 05:40:14;;;;;;;8.20;3.17;;;5.40;99.90;;;;;;5124305;27;20226;-53
2022/01/23 05:42:42;;;;;;;5.03;3.10;;;5.40;99.90;;;;;;5113828;27;20204;-54
2022/01/23 05:45:11;;;;;;;5.20;2.47;;;5.30;99.90;;;;;;5112304;28;20229;-56
2022/01/23 05:47:39;;;;;;;3.60;2.83;;;5.30;99.90;;;;;;5112668;28;20203;-55
2022/01/23 05:50:08;;;;;;;5.77;2.70;;;5.40;99.90;;;;;;5112412;28;20240;-56
2022/01/23 05:52:39;;;;;;;2.83;2.60;;;5.30;99.90;;;;;;5112061;28;20214;-56
2022/01/23 05:55:08;;;;;;;2.77;2.37;;;5.30;99.90;;;;;;5131530;27;20729;-52
2022/01/23 05:57:36;;;;;;;3.10;2.60;;;5.30;99.90;;;;;;5132840;27;20273;-53
2022/01/23 06:00:06;;;;;;;3.97;2.53;;;5.30;99.90;;;;;;5131137;27;20275;-54
2022/01/23 06:02:34;;;;;;;2.90;2.60;;;5.30;99.90;;;;;;5132816;27;20666;-56
2022/01/23 06:05:02;;;;;;;4.03;2.80;;;5.30;99.90;;;;;;5121822;27;20210;-55
2022/01/23 06:07:30;;;;;;;3.07;2.77;;;5.20;99.90;;;;;;5127318;27;20244;-56
2022/01/23 06:09:59;;;;;;;3.40;2.60;;;5.20;99.90;;;;;;5125862;27;20198;-54
2022/01/23 06:12:28;;;;;;;3.37;2.63;;;5.20;99.90;;;;;;5100352;28;20687;-55
2022/01/23 06:14:56;;;;;;;3.17;2.67;;;5.20;99.90;;;;;;5112260;28;20206;-56
2022/01/23 06:17:24;;;;;;;3.50;2.50;;;5.20;99.90;;;;;;5111840;28;20224;-56
2022/01/23 06:19:52;;;;;;;2.50;2.20;;;5.20;99.90;;;;;;5111851;28;20219;-56
2022/01/23 06:22:23;;;;;;;4.93;3.57;;;5.20;99.90;;;;;;5123333;27;20213;-56
2022/01/23 06:24:51;;;;;;;5.70;3.00;;;5.30;99.90;;;;;;5119734;27;20841;-56
2022/01/23 06:27:20;;;;;;;4.90;3.00;;;5.20;99.90;;;;;;5111776;28;20890;-56
2022/01/23 06:29:48;;;;;;;2.40;2.20;;;5.10;99.90;;;;;;5111547;28;20207;-56
2022/01/23 06:32:16;;;;;;;3.57;2.40;;;5.00;99.90;;;;;;5111390;28;20255;-56
2022/01/23 06:34:44;;;;;;;2.93;2.30;;;4.90;99.90;;;;;;5111305;28;20199;-56
2022/01/23 06:37:13;;;;;;;3.10;2.23;;;4.90;99.90;;;;;;5129879;27;20283;-56
2022/01/23 06:39:41;;;;;;;2.80;2.00;;;4.80;99.90;;;;;;5131987;27;20230;-55
2022/01/23 06:42:10;;;;;;;3.23;2.10;;;4.60;99.90;;;;;;5132021;27;20224;-55
2022/01/23 06:44:40;;;;;;;4.13;2.37;;;4.60;99.90;;;;;;5132233;27;20210;-56
2022/01/23 06:47:08;;;;;;;3.93;2.63;;;4.50;99.90;;;;;;5114409;27;20264;-62
2022/01/23 06:49:36;;;;;;;2.90;2.60;;;4.40;99.90;;;;;;5116348;27;20209;-63
2022/01/23 06:52:05;;;;;;;5.37;2.50;;;4.40;99.90;;;;;;5118023;27;20218;-54
2022/01/23 06:54:33;;;;;;;3.20;2.90;;;4.40;99.90;;;;;;5104645;28;20217;-54
2022/01/23 06:57:01;;;;;;;3.17;2.37;;;4.30;99.90;;;;;;5123092;27;20269;-54
2022/01/23 06:59:29;;;;;;;6.13;2.03;;;4.30;99.90;;;;;;5128346;27;20195;-55
2022/01/23 07:01:59;;;;;;;3.20;2.30;;;4.30;99.90;;;;;;5122295;27;20262;-54
2022/01/23 07:04:27;;;;;;;2.93;2.10;;;4.40;99.90;;;;;;5119012;27;20661;-55
2022/01/23 07:06:55;;;;;;;3.47;2.30;;;4.50;99.90;;;;;;5122286;28;20201;-55
2022/01/23 07:09:24;;;;;;;3.30;2.57;;;4.40;99.90;;;;;;5127599;27;20207;-56
2022/01/23 07:11:52;;;;;;;3.17;2.50;;;4.40;99.90;;;;;;5124571;27;20220;-56
2022/01/23 07:14:21;;;;;;;3.10;2.43;;;4.50;99.90;;;;;;5122162;27;20195;-55
2022/01/23 07:16:49;;;;;;;4.63;2.63;;;4.50;99.90;;;;;;5129678;28;20228;-55
2022/01/23 07:19:18;;;;;;;4.20;2.50;;;4.60;99.90;;;;;;5129355;27;20199;-56
2022/01/23 07:21:47;;;;;;;4.90;2.20;;;4.60;99.90;;;;;;5123733;28;20224;-56
2022/01/23 07:24:15;;;;;;;5.13;2.40;;;4.50;99.90;;;;;;5125263;28;20211;-55
2022/01/23 07:26:43;;;;;;;4.27;2.50;;;4.50;99.90;;;;;;5130520;27;20270;-56
2022/01/23 07:29:11;;;;;;;3.23;2.23;;;4.50;99.90;;;;;;5113564;27;20201;-56
2022/01/23 07:31:58;;;;;;;4.50;2.30;;;4.50;99.90;;;;;;5104272;28;20230;-56
2022/01/23 07:34:28;;;;;;;2.73;2.40;;;4.50;99.90;;;;;;5110038;28;20211;-56
2022/01/23 07:36:56;;;;;;;5.87;3.67;;;4.60;99.90;;;;;;5090492;28;20639;-54
2022/01/23 07:39:25;;;;;;;7.87;4.50;;;4.60;99.90;;;;;;5088922;28;20210;-56
2022/01/23 07:41:53;;;;;;;27.37;14.70;;;4.70;99.90;;;;;;5089403;28;20233;-54
2022/01/23 07:44:21;;;;;;;26.63;13.20;;;4.70;99.90;;;;;;5089672;28;20214;-55
2022/01/23 07:46:51;;;;;;;13.23;8.03;;;4.60;99.90;;;;;;5108558;28;20263;-55
2022/01/23 07:49:19;;;;;;;6.70;4.17;;;4.60;99.90;;;;;;5104827;28;20228;-54
2022/01/23 07:51:49;;;;;;;6.60;3.33;;;4.70;99.90;;;;;;5090101;28;20228;-55
2022/01/23 07:54:17;;;;;;;3.70;2.63;;;4.70;99.90;;;;;;5108867;28;20252;-55
2022/01/23 07:56:45;;;;;;;2.57;2.23;;;4.70;99.90;;;;;;5110628;28;20209;-55
2022/01/23 07:59:13;;;;;;;3.90;2.60;;;4.70;99.90;;;;;;5114304;28;20221;-56
2022/01/23 08:01:41;;;;;;;5.10;2.60;;;4.80;99.90;;;;;;5130043;28;20278;-55
2022/01/23 08:04:10;;;;;;;4.00;3.30;;;4.80;99.90;;;;;;5131237;27;20231;-56
2022/01/23 08:06:45;;;;;;;4.33;3.23;;;4.80;99.90;;;;;;5131381;27;20201;-55
2022/01/23 08:09:15;;;;;;;4.80;3.57;;;4.90;99.90;;;;;;5130552;28;20288;-57
2022/01/23 08:11:43;;;;;;;4.27;3.13;;;4.90;99.90;;;;;;5110419;28;20672;-56
2022/01/23 08:14:12;;;;;;;3.87;3.57;;;4.90;99.90;;;;;;5114172;28;20206;-55
2022/01/23 08:16:40;;;;;;;5.63;3.90;;;4.90;99.90;;;;;;5112990;28;20253;-55
2022/01/23 08:19:08;;;;;;;6.27;4.27;;;4.90;99.90;;;;;;5114075;28;20843;-55
2022/01/23 08:21:36;;;;;;;12.30;6.97;;;4.90;99.90;;;;;;5116976;27;20232;-55
2022/01/23 08:24:05;;;;;;;9.40;8.37;;;4.90;99.90;;;;;;5119912;27;20259;-55
2022/01/23 08:26:35;;;;;;;9.10;5.77;;;5.00;99.90;;;;;;5113992;28;20690;-54
2022/01/23 08:29:03;;;;;;;7.40;4.83;;;5.00;99.90;;;;;;5105778;27;20247;-55
2022/01/23 08:31:31;;;;;;;6.20;4.60;;;5.00;99.90;;;;;;5125679;27;20275;-55
2022/01/23 08:34:00;;;;;;;5.10;3.80;;;5.10;99.90;;;;;;5124600;27;20198;-55
2022/01/23 08:36:29;;;;;;;4.33;3.50;;;5.00;99.90;;;;;;5106965;27;20261;-54
2022/01/23 08:38:59;;;;;;;3.80;3.20;;;5.10;99.90;;;;;;5113573;27;20312;-55
2022/01/23 08:44:14;;;;;;;10.10;4.60;;;5.10;99.90;;;;;;5120121;27;20242;-55
2022/01/23 08:46:42;;;;;;;6.87;4.70;;;5.20;99.90;;;;;;5121093;27;20600;-55
2022/01/23 08:49:10;;;;;;;7.73;5.20;;;5.20;99.90;;;;;;5108591;28;20196;-55
2022/01/23 08:51:38;;;;;;;7.23;5.20;;;5.10;99.90;;;;;;5113238;28;20265;-55
2022/01/23 08:54:07;;;;;;;8.77;4.90;;;5.10;99.90;;;;;;5113690;28;20202;-55
2022/01/23 08:56:35;;;;;;;8.43;5.67;;;5.10;99.90;;;;;;5120676;27;20322;-54
2022/01/23 08:59:03;;;;;;;6.27;5.00;;;5.20;99.90;;;;;;5128096;27;20756;-54
2022/01/23 09:01:36;;;;;;;8.67;6.10;;;5.20;99.90;;;;;;5113056;28;20854;-55
2022/01/23 09:04:06;;;;;;;4.87;3.80;;;5.20;99.90;;;;;;5113617;27;20213;-55
2022/01/23 09:06:34;;;;;;;5.53;4.97;;;5.30;99.90;;;;;;5120093;27;20191;-55
2022/01/23 09:09:04;;;;;;;5.20;4.13;;;5.30;99.90;;;;;;5092643;28;20211;-55
2022/01/23 09:11:41;;;;;;;5.53;4.93;;;5.30;99.90;;;;;;5121926;27;20306;-55
2022/01/23 09:14:10;;;;;;;6.37;5.00;;;5.30;99.90;;;;;;5092270;28;20735;-55
2022/01/23 09:16:41;;;;;;;11.97;8.60;;;5.40;99.90;;;;;;5107466;28;20597;-54
2022/01/23 09:19:11;;;;;;;11.90;9.07;;;5.40;99.90;;;;;;5112938;28;20256;-55
2022/01/23 09:21:40;;;;;;;7.17;5.20;;;5.50;99.90;;;;;;5113099;28;20282;-55
2022/01/23 09:24:08;;;;;;;8.23;5.40;;;5.50;99.90;;;;;;5114383;27;20623;-55
2022/01/23 09:26:37;;;;;;;8.33;4.63;;;5.50;99.90;;;;;;5132753;27;20840;-55
2022/01/23 09:29:13;;;;;;;5.20;4.00;;;5.50;99.90;;;;;;5126808;27;20255;-55
2022/01/23 09:31:49;;;;;;;6.93;4.73;;;5.50;99.90;;;;;;5108395;28;20304;-55
2022/01/23 09:34:19;;;;;;;8.13;6.93;;;5.60;99.90;;;;;;5109260;27;20203;-55
2022/01/23 09:36:48;;;;;;;23.47;17.13;;;5.60;99.90;;;;;;5109910;28;20208;-55
2022/01/23 09:39:20;;;;;;;22.33;15.50;;;5.60;99.90;;;;;;5101442;28;20281;-56
2022/01/23 09:42:02;;;;;;;11.40;6.50;;;5.70;99.90;;;;;;5107300;28;20350;-56
2022/01/23 09:44:36;;;;;;;8.70;5.87;;;5.70;99.90;;;;;;5106543;28;20573;-55
2022/01/23 09:47:06;;;;;;;7.53;5.70;;;5.80;99.90;;;;;;5112326;28;20284;-55
2022/01/23 09:49:35;;;;;;;7.43;5.50;;;5.80;99.90;;;;;;5112536;28;20205;-55
2022/01/23 09:52:05;;;;;;;17.63;11.67;;;5.80;99.90;;;;;;5109086;28;20228;-55
2022/01/23 09:54:33;;;;;;;19.43;13.57;;;5.80;99.90;;;;;;5111146;28;20199;-54
2022/01/23 09:57:04;;;;;;;16.87;12.97;;;5.80;99.90;;;;;;5114056;28;20213;-56
2022/01/23 09:59:32;;;;;;;16.60;10.77;;;5.80;99.90;;;;;;5112325;28;20352;-55
2022/01/23 10:02:03;;;;;;;14.60;11.17;;;5.90;99.90;;;;;;5107174;28;20285;-55
2022/01/23 10:04:33;;;;;;;13.17;10.40;;;6.00;99.90;;;;;;5096765;28;20290;-55
2022/01/23 10:07:05;;;;;;;18.47;10.80;;;6.10;99.90;;;;;;5102512;27;20200;-55
2022/01/23 10:09:33;;;;;;;19.93;14.10;;;6.10;99.90;;;;;;5107121;28;20196;-55
2022/01/23 10:12:02;;;;;;;43.43;22.13;;;6.10;99.90;;;;;;5096334;28;20224;-55
2022/01/23 10:14:30;;;;;;;28.63;13.67;;;6.10;99.90;;;;;;5110918;28;20212;-56
2022/01/23 10:17:00;;;;;;;8.87;5.67;;;6.20;99.90;;;;;;5111824;28;20214;-55
2022/01/23 10:19:28;;;;;;;4.77;3.37;;;6.30;99.90;;;;;;5113122;27;20640;-55
2022/01/23 10:22:00;;;;;;;5.67;3.73;;;6.30;99.90;;;;;;5108283;28;20237;-56
2022/01/23 10:24:29;;;;;;;4.83;3.60;;;6.30;99.90;;;;;;5101982;28;20213;-55
2022/01/23 10:26:59;;;;;;;4.30;3.90;;;6.30;99.90;;;;;;5111380;27;20258;-55
2022/01/23 10:29:31;;;;;;;5.63;4.07;;;6.30;99.90;;;;;;5112095;28;20321;-55
2022/01/23 10:32:06;;;;;;;6.83;5.47;;;6.40;99.90;;;;;;5107063;28;20306;-55
2022/01/23 10:34:49;;;;;;;8.53;5.53;;;6.40;99.90;;;;;;5112104;27;20199;-55
2022/01/23 10:37:34;;;;;;;9.23;6.13;;;6.30;99.90;;;;;;5106956;28;20919;-54
2022/01/23 10:40:11;;;;;;;7.77;6.23;;;6.30;99.90;;;;;;5102051;28;20321;-55
2022/01/23 10:48:37;;;;;;;5.07;4.40;;;6.30;99.90;;;;;;5111122;28;20207;-55
2022/01/23 10:51:24;;;;;;;5.97;4.77;;;6.40;99.90;;;;;;5110284;28;20230;-55
2022/01/23 10:54:03;;;;;;;6.27;4.90;;;6.30;99.90;;;;;;5106757;28;20207;-55
2022/01/23 10:56:33;;;;;;;6.00;4.90;;;6.30;99.90;;;;;;5110545;28;20204;-56
2022/01/23 10:59:06;;;;;;;5.07;4.43;;;6.30;99.90;;;;;;5098082;28;20923;-56
2022/01/23 11:01:35;;;;;;;5.17;4.20;;;6.30;99.90;;;;;;5107773;28;20602;-56
2022/01/23 11:04:11;;;;;;;4.30;3.90;;;6.40;99.90;;;;;;5093028;28;20205;-57
2022/01/23 11:06:54;;;;;;;4.77;4.10;;;6.40;99.90;;;;;;5109829;28;20211;-56
2022/01/23 11:09:29;;;;;;;5.83;3.97;;;6.40;99.90;;;;;;5109211;28;20207;-56
2022/01/23 11:12:12;;;;;;;6.00;5.40;;;6.40;99.90;;;;;;5102610;28;20258;-55
2022/01/23 11:17:27;;;;;;;7.40;5.80;;;6.50;99.90;;;;;;5106054;28;20831;-56
2022/01/23 11:20:00;;;;;;;7.37;6.60;;;6.50;99.90;;;;;;5109062;28;20244;-56
2022/01/23 11:22:32;;;;;;;6.23;4.77;;;6.50;99.90;;;;;;5097379;28;20228;-54
2022/01/23 11:25:05;;;;;;;8.17;5.40;;;6.50;99.90;;;;;;5090122;28;20663;-53
2022/01/23 11:27:37;;;;;;;8.63;4.70;;;6.50;99.90;;;;;;5089786;28;20267;-54
2022/01/23 11:30:08;;;;;;;7.30;6.03;;;6.50;99.90;;;;;;5090769;28;20672;-54
2022/01/23 11:32:40;;;;;;;6.50;4.80;;;6.50;99.90;;;;;;5100673;28;20219;-54
2022/01/23 11:35:11;;;;;;;7.27;4.87;;;6.50;99.90;;;;;;5094291;28;20256;-53
2022/01/23 11:37:46;;;;;;;6.27;5.20;;;6.50;99.90;;;;;;5105222;28;20570;-54
2022/01/23 11:40:38;;;;;;;8.90;5.93;;;6.50;99.90;;;;;;5129902;28;20225;-53
2022/01/23 11:54:17;;;;;;;6.47;5.13;;;6.50;99.90;;;;;;5121590;27;20195;-54
2022/01/23 11:56:47;;;;;;;7.13;4.87;;;6.50;99.90;;;;;;5111481;27;20236;-57
2022/01/23 11:59:25;;;;;;;7.60;6.07;;;6.50;99.90;;;;;;5115389;27;20232;-55
2022/01/23 12:02:32;;;;;;;5.83;5.07;;;6.50;99.90;;;;;;5109432;27;20284;-55
2022/01/23 12:05:24;;;;;;;5.53;4.93;;;6.60;99.90;;;;;;5093216;28;20265;-55
2022/01/23 12:08:31;;;;;;;7.07;5.03;;;6.50;99.90;;;;;;5124490;27;20258;-55
2022/01/23 12:17:39;;;;;;;8.57;6.10;;;6.60;99.90;;;;;;5112376;28;20212;-54
2022/01/23 12:20:08;;;;;;;9.20;6.57;;;6.60;99.90;;;;;;5113396;28;20265;-55
2022/01/23 12:22:45;;;;;;;6.53;4.93;;;6.60;99.90;;;;;;5111030;28;20211;-54
2022/01/23 12:25:27;;;;;;;7.07;4.10;;;6.70;99.90;;;;;;5109411;28;20939;-53
2022/01/23 12:28:17;;;;;;;5.07;4.23;;;6.70;99.90;;;;;;5113062;28;20613;-55
2022/01/23 12:30:47;;;;;;;8.03;4.83;;;6.70;99.90;;;;;;5103571;28;20233;-55
2022/01/23 12:33:22;;;;;;;5.10;4.33;;;6.70;99.90;;;;;;5093186;28;20292;-54
2022/01/23 12:35:52;;;;;;;6.50;4.50;;;6.70;99.90;;;;;;5112205;27;20212;-53
2022/01/23 12:38:29;;;;;;;6.10;4.70;;;6.70;99.90;;;;;;5109453;28;20235;-54
2022/01/23 12:41:21;;;;;;;5.27;4.37;;;6.80;99.90;;;;;;5105788;28;20232;-53
2022/01/23 12:43:50;;;;;;;5.77;4.13;;;6.80;99.90;;;;;;5108494;28;20208;-54
2022/01/23 12:46:30;;;;;;;7.57;4.67;;;6.90;99.90;;;;;;5112943;28;20262;-54
2022/01/23 12:49:17;;;;;;;5.53;4.37;;;7.00;99.90;;;;;;5112959;28;20203;-53
2022/01/23 12:51:47;;;;;;;4.90;4.00;;;7.00;99.90;;;;;;5099974;28;20236;-54
2022/01/23 12:54:24;;;;;;;7.30;4.70;;;7.00;99.90;;;;;;5097098;28;20270;-56
2022/01/23 12:56:54;;;;;;;6.83;4.20;;;7.00;99.90;;;;;;5097981;28;20201;-54
2022/01/23 12:59:32;;;;;;;7.43;4.33;;;7.00;99.90;;;;;;5108427;28;20208;-54
2022/01/23 13:02:05;;;;;;;9.17;7.57;;;7.00;99.90;;;;;;5096301;28;20259;-53
2022/01/23 13:04:39;;;;;;;15.33;11.73;;;7.00;99.90;;;;;;5109403;28;20246;-55
2022/01/23 13:07:16;;;;;;;9.80;7.83;;;6.90;99.90;;;;;;5111449;28;20279;-55
2022/01/23 13:09:51;;;;;;;7.10;5.30;;;6.90;99.90;;;;;;5111104;28;20197;-56
2022/01/23 13:12:34;;;;;;;10.77;8.57;;;7.00;99.90;;;;;;5109681;28;20266;-55
2022/01/23 13:15:27;;;;;;;11.53;9.07;;;7.00;99.90;;;;;;5109605;28;20618;-53
2022/01/23 13:18:08;;;;;;;8.90;6.63;;;7.00;99.90;;;;;;5111816;28;20248;-55
2022/01/23 13:32:14;;;;;;;6.60;4.77;;;7.00;99.90;;;;;;5095156;28;20238;-56
2022/01/23 13:34:49;;;;;;;6.87;5.00;;;7.00;99.90;;;;;;5108110;28;20624;-55
2022/01/23 13:37:20;;;;;;;5.67;4.03;;;7.10;99.90;;;;;;5111061;28;20267;-55
2022/01/23 13:39:53;;;;;;;6.33;4.30;;;7.10;99.90;;;;;;5112278;28;20233;-55
2022/01/23 13:42:47;;;;;;;6.80;4.00;;;7.10;99.90;;;;;;5107552;28;20233;-56
2022/01/23 13:51:28;;;;;;;4.60;3.97;;;7.30;99.90;;;;;;5099013;28;20287;-56
2022/01/23 13:54:18;;;;;;;6.50;4.23;;;7.20;99.90;;;;;;5108152;28;20206;-56
2022/01/23 13:59:39;;;;;;;4.87;4.10;;;7.20;99.90;;;;;;5109340;28;20253;-56
2022/01/23 14:02:16;;;;;;;5.73;4.30;;;7.30;99.90;;;;;;5103154;28;20260;-54
2022/01/23 14:04:47;;;;;;;5.30;4.50;;;7.30;99.90;;;;;;5110959;28;20700;-55
2022/01/23 14:07:20;;;;;;;4.60;4.10;;;7.20;99.90;;;;;;5110876;28;20699;-55
2022/01/23 14:09:55;;;;;;;5.83;4.40;;;7.20;99.90;;;;;;5107100;28;20260;-55
2022/01/23 14:12:26;;;;;;;3.77;3.37;;;7.20;99.90;;;;;;5109844;28;20225;-55
2022/01/23 14:15:17;;;;;;;5.30;4.77;;;7.20;99.90;;;;;;5109231;28;20204;-56
2022/01/23 14:17:58;;;;;;;5.77;4.03;;;7.10;99.90;;;;;;5111448;28;20253;-54
2022/01/23 14:20:27;;;;;;;4.37;3.83;;;7.20;99.90;;;;;;5112848;27;20267;-55
2022/01/23 14:22:56;;;;;;;4.33;3.50;;;7.30;99.90;;;;;;5110525;27;20218;-55
2022/01/23 14:25:28;;;;;;;4.27;3.73;;;7.20;99.90;;;;;;5116197;27;20244;-54
2022/01/23 14:28:06;;;;;;;4.93;3.90;;;7.20;99.90;;;;;;5109125;28;20203;-54
2022/01/23 14:30:35;;;;;;;5.03;3.60;;;7.20;99.90;;;;;;5106069;28;20265;-55
2022/01/23 14:33:13;;;;;;;3.43;3.07;;;7.20;99.90;;;;;;5088823;28;20265;-55
2022/01/23 14:35:41;;;;;;;5.33;3.50;;;7.20;99.90;;;;;;5098377;28;20210;-54
2022/01/23 14:38:11;;;;;;;4.10;3.23;;;7.20;99.90;;;;;;5115017;27;20210;-55
2022/01/23 14:40:53;;;;;;;3.10;2.80;;;7.20;99.90;;;;;;5109424;28;20227;-55
2022/01/23 14:43:21;;;;;;;3.73;2.93;;;7.30;99.90;;;;;;5111506;28;20206;-55
2022/01/23 14:45:53;;;;;;;3.50;2.70;;;7.20;99.90;;;;;;5110379;28;20217;-55
2022/01/23 14:48:21;;;;;;;4.60;3.17;;;7.30;99.90;;;;;;5111659;28;20710;-55
2022/01/23 14:50:53;;;;;;;3.70;3.27;;;7.30;99.90;;;;;;5111875;28;20220;-55
2022/01/23 14:53:23;;;;;;;3.47;2.97;;;7.30;99.90;;;;;;5119958;27;20237;-55
2022/01/23 14:55:55;;;;;;;4.47;3.00;;;7.20;99.90;;;;;;5117396;28;20667;-55
2022/01/23 14:58:24;;;;;;;3.47;2.87;;;7.20;99.90;;;;;;5114681;27;20210;-55
2022/01/23 15:00:54;;;;;;;2.80;2.50;;;7.20;99.90;;;;;;5114907;27;20280;-54
2022/01/23 15:03:25;;;;;;;2.90;2.60;;;7.20;99.90;;;;;;5130528;27;20287;-55
2022/01/23 15:05:54;;;;;;;3.17;2.63;;;7.20;99.90;;;;;;5127061;27;20237;-55
2022/01/23 15:08:25;;;;;;;3.43;2.37;;;7.10;99.90;;;;;;5114349;27;20293;-55
2022/01/23 15:10:56;;;;;;;3.70;2.70;;;7.10;99.90;;;;;;5110271;28;20715;-55
2022/01/23 15:13:25;;;;;;;2.50;2.30;;;7.10;99.90;;;;;;5112007;28;20205;-55
2022/01/23 15:15:55;;;;;;;3.50;2.63;;;7.10;99.90;;;;;;5118749;28;20203;-55
2022/01/23 15:18:24;;;;;;;2.60;2.40;;;7.10;99.90;;;;;;5130214;28;20616;-55
2022/01/23 15:20:52;;;;;;;2.83;2.40;;;7.10;99.90;;;;;;5128096;28;20599;-56
2022/01/23 15:23:20;;;;;;;3.83;2.73;;;7.00;99.90;;;;;;5124572;28;20270;-55
2022/01/23 15:25:49;;;;;;;2.87;2.27;;;7.00;99.90;;;;;;5092169;28;20206;-55
2022/01/23 15:28:18;;;;;;;2.43;2.23;;;7.00;99.90;;;;;;5094630;28;20213;-55
2022/01/23 15:30:49;;;;;;;3.07;2.40;;;7.00;99.90;;;;;;5114304;28;20222;-54
2022/01/23 15:33:17;;;;;;;3.27;2.23;;;7.00;99.90;;;;;;5123972;27;20208;-54
2022/01/23 15:35:47;;;;;;;3.37;2.80;;;7.00;99.90;;;;;;5125787;27;20238;-54
2022/01/23 15:38:16;;;;;;;2.80;2.40;;;7.00;99.90;;;;;;5118126;27;20248;-55
2022/01/23 15:40:44;;;;;;;2.37;2.17;;;6.90;99.90;;;;;;5111957;28;20222;-55
2022/01/23 15:43:12;;;;;;;3.60;2.77;;;6.90;99.90;;;;;;5096804;27;20272;-55
2022/01/23 15:45:45;;;;;;;5.30;2.87;;;6.90;99.90;;;;;;5128821;27;20259;-56
2022/01/23 15:48:14;;;;;;;5.07;3.20;;;6.80;99.90;;;;;;5114891;27;20215;-55
2022/01/23 15:50:42;;;;;;;5.00;4.00;;;6.80;99.90;;;;;;5115262;28;20281;-55